Home > Products > Valid Products > MTR

000
SAUS43 KEAX 290753
MTRCDJ
METAR KCDJ 290752Z AUTO 13003KT 19/18 A2995 RMK AO1 SLP132 T01890178





000
SAUS43 KEAX 290654
MTRCDJ
METAR KCDJ 290652Z AUTO 00000KT 19/18 A2998 RMK AO1 SLP143 T01940183





000
SAUS43 KEAX 290553
MTRCDJ
METAR KCDJ 290552Z AUTO 17003KT 19/18 A2999 RMK AO1 SLP147 T01940183
10217 20194 402560156 58012





000
SAUS43 KEAX 290453
MTRCDJ
METAR KCDJ 290452Z AUTO 16004KT 19/18 A3002 RMK AO1 SLP157 T01940183





000
SAUS43 KEAX 290453
MTRCDJ
METAR KCDJ 290452Z AUTO 16004KT 19/18 A3002 RMK AO1 SLP157 T01940183





000
SAUS43 KEAX 290353
MTRCDJ
METAR KCDJ 290352Z AUTO 15006KT 20/18 A3002 RMK AO1 SLP158 T02000183





000
SAUS43 KEAX 290253
MTRCDJ
METAR KCDJ 290252Z AUTO 14005KT 20/18 A3003 RMK AO1 SLP161 T02000183
53012





000
SAUS43 KEAX 290153
MTRCDJ
METAR KCDJ 290152Z AUTO 00000KT 19/18 A3001 RMK AO1 SLP155 T01940183





000
SAUS43 KEAX 290153
MTRCDJ
METAR KCDJ 290152Z AUTO 00000KT 19/18 A3001 RMK AO1 SLP155 T01940183





000
SAUS43 KEAX 290054
MTRCDJ
METAR KCDJ 290052Z AUTO 11005KT 21/18 A3000 RMK AO1 SLP152 T02060183





000
SAUS43 KEAX 282353
MTRCDJ
METAR KCDJ 282352Z AUTO VRB03KT 22/18 A2999 RMK AO1 SLP148 T02170183
10256 20217 58018





000
SAUS43 KEAX 282253
MTRCDJ
METAR KCDJ 282252Z AUTO 00000KT 22/18 A3003 RMK AO1 SLP161 T02220183





000
SAUS43 KEAX 282153
MTRCDJ
METAR KCDJ 282152Z AUTO 19006KT 22/19 A3005 RMK AO1 SLP170 T02220189





000
SAUS43 KEAX 282053
MTRCDJ
METAR KCDJ 282052Z AUTO 21007KT 24/18 A3005 RMK AO1 SLP166 T02440183
56015





000
SAUS43 KEAX 281953
MTRCDJ
METAR KCDJ 281952Z AUTO 20006KT 25/20 A3005 RMK AO1 SLP169 T02500200





000
SAUS43 KEAX 281853
MTRCDJ
METAR KCDJ 281852Z AUTO 14008KT 24/19 A3009 RMK AO1 SLP179 T02390194





000
SAUS43 KEAX 281753
MTRCDJ
METAR KCDJ 281752Z AUTO 14006KT 22/18 A3009 RMK AO1 SLP183 60034
T02220183 10222 20178 56017





000
SAUS43 KEAX 281653
MTRCDJ
METAR KCDJ 281652Z AUTO 10005KT 21/18 A3009 RMK AO1 SLP184 P0008
T02060178





000
SAUS43 KEAX 281553
MTRCDJ
METAR KCDJ 281552Z AUTO VRB03KT 20/18 A3011 RMK AO1 SLP189 P0014
T02000178





000
SAUS43 KEAX 281553
MTRCDJ
METAR KCDJ 281552Z AUTO VRB03KT 20/18 A3011 RMK AO1 SLP189 P0014
T02000178





000
SAUS43 KEAX 281459
MTRCDJ
METAR KCDJ 281452Z AUTO 29005KT 18/16 A3015 RMK AO1 SLP202 P0012
60012 T01830161 53004





000
SAUS43 KEAX 281359
MTRCDJ
METAR KCDJ 281352Z AUTO VRB03KT 20/16 A3013 RMK AO1 SLP194 T02000156





000
SAUS43 KEAX 281259
MTRCDJ
METAR KCDJ 281252Z AUTO 13003KT 19/15 A3013 RMK AO1 SLP192 T01890150





000
SAUS43 KEAX 281159
MTRCDJ
METAR KCDJ 281152Z AUTO 12003KT 18/14 A3013 RMK AO1 SLP194 T01780144
10178 20156 53008





000
SAUS43 KEAX 281059
MTRCDJ
METAR KCDJ 281052Z AUTO 13004KT 17/14 A3011 RMK AO1 SLP186 T01720144





000
SAUS43 KEAX 280959
MTRCDJ
METAR KCDJ 280952Z AUTO 00000KT 17/14 A3011 RMK AO1 SLP185 T01670144





000
SAUS43 KEAX 280859
MTRCDJ
METAR KCDJ 280852Z AUTO 00000KT 17/14 A3011 RMK AO1 SLP185 T01720144
58007





000
SAUS43 KEAX 280859
MTRCDJ
METAR KCDJ 280852Z AUTO 00000KT 17/14 A3011 RMK AO1 SLP185 T01720144
58007





000
SAUS43 KEAX 280759
MTRCDJ
METAR KCDJ 280752Z AUTO 00000KT 16/15 A3013 RMK AO1 SLP192 T01610150





000
SAUS43 KEAX 280659
MTRCDJ
METAR KCDJ 280652Z AUTO 00000KT 17/15 A3014 RMK AO1 SLP197 T01670150





000
SAUS43 KEAX 280559
MTRCDJ
METAR KCDJ 280552Z AUTO 00000KT 17/16 A3013 RMK AO1 SLP194 T01720156
10272 20167 402890133 51011





000
SAUS43 KEAX 280559
MTRCDJ
METAR KCDJ 280552Z AUTO 00000KT 17/16 A3013 RMK AO1 SLP194 T01720156
10272 20167 402890133 51011





000
SAUS43 KEAX 280459
MTRCDJ
METAR KCDJ 280452Z AUTO 00000KT 17/16 A3012 RMK AO1 SLP191 T01720156





000
SAUS43 KEAX 280459
MTRCDJ
METAR KCDJ 280452Z AUTO 00000KT 17/16 A3012 RMK AO1 SLP191 T01720156





000
SAUS43 KEAX 280359
MTRCDJ
METAR KCDJ 280352Z AUTO 00000KT 18/16 A3011 RMK AO1 SLP188 T01780161





000
SAUS43 KEAX 280359
MTRCDJ
METAR KCDJ 280352Z AUTO 00000KT 18/16 A3011 RMK AO1 SLP188 T01780161





000
SAUS43 KEAX 280259
MTRCDJ
METAR KCDJ 280252Z AUTO 00000KT 19/17 A3010 RMK AO1 SLP184 T01890167
53009





000
SAUS43 KEAX 280138
MTRCDJ
METAR KCDJ 271852Z AUTO 32005KT 27/12 A3009 RMK AO1 SLP180 T02720122





000
SAUS43 KEAX 271659
MTRCDJ
METAR KCDJ 271652Z AUTO 00000KT 25/16 A3010 RMK AO1 SLP184 T02500156





000
SAUS43 KEAX 271659
MTRCDJ
METAR KCDJ 271652Z AUTO 00000KT 25/16 A3010 RMK AO1 SLP184 T02500156





000
SAUS43 KEAX 271559
MTRCDJ
METAR KCDJ 271552Z AUTO 17006KT 23/16 A3009 RMK AO1 SLP181 T02280161





000
SAUS43 KEAX 271559
MTRCDJ
METAR KCDJ 271552Z AUTO 17006KT 23/16 A3009 RMK AO1 SLP181 T02280161





000
SAUS43 KEAX 271459
MTRCDJ
METAR KCDJ 271452Z AUTO VRB03KT 22/16 A3008 RMK AO1 SLP178 T02170156
53010





000
SAUS43 KEAX 271459
MTRCDJ
METAR KCDJ 271452Z AUTO VRB03KT 22/16 A3008 RMK AO1 SLP178 T02170156
53010





000
SAUS43 KEAX 271358
MTRCDJ
METAR KCDJ 271352Z AUTO VRB03KT 20/14 A3007 RMK AO1 SLP173 T02000144





000
SAUS43 KEAX 271358
MTRCDJ
METAR KCDJ 271352Z AUTO VRB03KT 20/14 A3007 RMK AO1 SLP173 T02000144





000
SAUS43 KEAX 271259
MTRCDJ
METAR KCDJ 271252Z AUTO 00000KT 18/15 A3006 RMK AO1 SLP169 T01830150





000
SAUS43 KEAX 271259
MTRCDJ
METAR KCDJ 271252Z AUTO 00000KT 18/15 A3006 RMK AO1 SLP169 T01830150





000
SAUS43 KEAX 271159
MTRCDJ
METAR KCDJ 271152Z AUTO 19003KT 16/14 A3005 RMK AO1 SLP167 70003
T01560144 10167 20133 51027





000
SAUS43 KEAX 271159
MTRCDJ
METAR KCDJ 271152Z AUTO 19003KT 16/14 A3005 RMK AO1 SLP167 70003
T01560144 10167 20133 51027





000
SAUS43 KEAX 271059
MTRCDJ
METAR KCDJ 271052Z AUTO 00000KT 14/14 A3003 RMK AO1 SLP160 T01440139





000
SAUS43 KEAX 271059
MTRCDJ
METAR KCDJ 271052Z AUTO 00000KT 14/14 A3003 RMK AO1 SLP160 T01440139





000
SAUS43 KEAX 270959
MTRCDJ
METAR KCDJ 270952Z AUTO 00000KT 15/14 A2999 RMK AO1 SLP148 T01500144





000
SAUS43 KEAX 270859
MTRCDJ
METAR KCDJ 270852Z AUTO 00000KT 16/14 A2997 RMK AO1 SLP139 T01560144
53010





000
SAUS43 KEAX 270759
MTRCDJ
METAR KCDJ 270752Z AUTO 00000KT 16/14 A2996 RMK AO1 SLP135 T01560144





000
SAUS43 KEAX 270759
MTRCDJ
METAR KCDJ 270752Z AUTO 00000KT 16/14 A2996 RMK AO1 SLP135 T01560144





000
SAUS43 KEAX 270659
MTRCDJ
METAR KCDJ 270652Z AUTO 21003KT 16/15 A2994 RMK AO1 SLP133 T01560150





000
SAUS43 KEAX 270659
MTRCDJ
METAR KCDJ 270652Z AUTO 21003KT 16/15 A2994 RMK AO1 SLP133 T01560150





000
SAUS43 KEAX 270559
MTRCDJ
METAR KCDJ 270552Z AUTO 00000KT 17/15 A2994 RMK AO1 SLP131 T01670150
10250 20161 402560161 51004





000
SAUS43 KEAX 270559
MTRCDJ
METAR KCDJ 270552Z AUTO 00000KT 17/15 A2994 RMK AO1 SLP131 T01670150
10250 20161 402560161 51004





000
SAUS43 KEAX 270459
MTRCDJ
METAR KCDJ 270452Z AUTO 00000KT 18/16 A2993 RMK AO1 SLP128 T01780161





000
SAUS43 KEAX 270459
MTRCDJ
METAR KCDJ 270452Z AUTO 00000KT 18/16 A2993 RMK AO1 SLP128 T01780161





000
SAUS43 KEAX 270359
MTRCDJ
METAR KCDJ 270352Z AUTO 00000KT 19/16 A2993 RMK AO1 SLP129 T01890161





000
SAUS43 KEAX 270259
MTRCDJ
METAR KCDJ 270252Z AUTO 00000KT 19/17 A2992 RMK AO1 SLP126 T01940167
53024





000
SAUS43 KEAX 270159
MTRCDJ
METAR KCDJ 270152Z AUTO 00000KT 21/17 A2989 RMK AO1 SLP112 T02110167





000
SAUS43 KEAX 270059
MTRCDJ
METAR KCDJ 270052Z AUTO VRB04KT 24/16 A2987 RMK AO1 SLP105 T02390161





000
SAUS43 KEAX 270059
MTRCDJ
METAR KCDJ 270052Z AUTO VRB04KT 24/16 A2987 RMK AO1 SLP105 T02390161





000
SAUS43 KEAX 262359
MTRCDJ
METAR KCDJ 262352Z AUTO VRB06KT 25/16 A2985 RMK AO1 SLP099 T02500161
10256 20222 53003





000
SAUS43 KEAX 262259
MTRCDJ
METAR KCDJ 262252Z AUTO 27008KT 250V310 26/16 A2984 RMK AO1 SLP096
T02560161





000
SAUS43 KEAX 262159
MTRCDJ
METAR KCDJ 262152Z AUTO 25010G23KT 230V290 26/16 A2984 RMK AO1
SLP094 T02560156





000
SAUS43 KEAX 262059
MTRCDJ
METAR KCDJ 262052Z AUTO 22009G19KT 170V250 25/16 A2984 RMK AO1
SLP096 T02500161 50000





000
SAUS43 KEAX 261959
MTRCDJ
METAR KCDJ 261952Z AUTO 23011G19KT 190V260 25/16 A2985 RMK AO1
SLP097 T02500161





000
SAUS43 KEAX 261859
MTRCDJ
METAR KCDJ 261852Z AUTO 21008KT 190V260 22/16 A2985 RMK AO1 SLP100
T02220161





000
SAUS43 KEAX 261759
MTRCDJ
METAR KCDJ 261752Z AUTO 21007KT 180V250 22/16 A2984 RMK AO1 SLP096
60003 T02220161 10228 20167 58002





000
SAUS43 KEAX 261759
MTRCDJ
METAR KCDJ 261752Z AUTO 21007KT 180V250 22/16 A2984 RMK AO1 SLP096
60003 T02220161 10228 20167 58002





000
SAUS43 KEAX 261659
MTRCDJ
METAR KCDJ 261652Z AUTO 22008KT 22/16 A2985 RMK AO1 SLP100 T02170161





000
SAUS43 KEAX 261659
MTRCDJ
METAR KCDJ 261652Z AUTO 22008KT 22/16 A2985 RMK AO1 SLP100 T02170161





000
SAUS43 KEAX 261559
MTRCDJ
METAR KCDJ 261552Z AUTO 19010KT 21/16 A2985 RMK AO1 SLP101 T02060161





000
SAUS43 KEAX 261459
MTRCDJ
METAR KCDJ 261452Z AUTO VRB05KT 19/16 A2985 RMK AO1 SLP098 60003
T01940161 52015





000
SAUS43 KEAX 261359
MTRCDJ
METAR KCDJ 261352Z AUTO 23006KT 18/17 A2983 RMK AO1 SLP094 T01830167





000
SAUS43 KEAX 261259
MTRCDJ
METAR KCDJ 261252Z AUTO 23003KT 17/16 A2982 RMK AO1 SLP086 P0003
T01720161





000
SAUS43 KEAX 261159
MTRCDJ
METAR KCDJ 261152Z AUTO 00000KT 17/16 A2980 RMK AO1 SLP082 P0002
60065 70065 T01670161 10200 20167 53019 $





000
SAUS43 KEAX 261159
MTRCDJ
METAR KCDJ 261152Z AUTO 00000KT 17/16 A2980 RMK AO1 SLP082 P0002
60065 70065 T01670161 10200 20167 53019 $





000
SAUS43 KEAX 261059
MTRCDJ
METAR KCDJ 261052Z AUTO VRB05KT 17/16 A2976 RMK AO1 SLP067 P0017
T01670156 $





000
SAUS43 KEAX 261059
MTRCDJ
METAR KCDJ 261052Z AUTO VRB05KT 17/16 A2976 RMK AO1 SLP067 P0017
T01670156 $





000
SAUS43 KEAX 260959
MTRCDJ
METAR KCDJ 260952Z AUTO 02009KT 17/16 A2972 RMK AO1 SLP052 P0024
T01670156 $





000
SAUS43 KEAX 260859
MTRCDJ
METAR KCDJ 260852Z AUTO 33006KT 17/16 A2975 RMK AO1 PRESFR SLP063
P0022 60022 T01720156 58025 $





000
SAUS43 KEAX 260859
MTRCDJ
METAR KCDJ 260852Z AUTO 33006KT 17/16 A2975 RMK AO1 PRESFR SLP063
P0022 60022 T01720156 58025 $





    US Dept of Commerce
    National Oceanic and Atmospheric Administration
    National Weather Service
    1325 East West Highway
    Silver Spring, MD 20910
    Page Author: NWS Internet Services Team
Disclaimer
Information Quality
Credits
Glossary
Privacy Policy
Freedom of Information Act (FOIA)
About Us
Career Opportunities